Time;durP1;ratioP1;P1;durP2;ratioP2;P2;SDS_P1;SDS_P2;PMS_P1;PMS_P2;Temp;Humidity;BMP_temperature;BMP_pressure;BME280_temperature;BME280_humidity;BME280_pressure;Samples;Min_cycle;Max_cycle;Signal;HPM_P1;HPM_P2
2023/12/22 00:01:50;;;;;;;15.90;2.92;;;;;;;;;;5022201;28;20021;-76
2023/12/22 00:04:15;;;;;;;12.77;2.80;;;;;;;;;;5018895;28;20022;-75
2023/12/22 00:06:40;;;;;;;17.90;3.85;;;;;;;;;;5022624;28;20406;-76
2023/12/22 00:09:05;;;;;;;13.85;2.53;;;;;;;;;;5018799;28;20118;-76
2023/12/22 00:11:31;;;;;;;23.65;2.88;;;;;;;;;;5022420;28;20669;-76
2023/12/22 00:13:56;;;;;;;25.42;3.97;;;;;;;;;;5018826;28;20029;-76
2023/12/22 00:16:21;;;;;;;16.48;3.63;;;;;;;;;;5019514;28;20053;-76
2023/12/22 00:18:46;;;;;;;17.30;3.00;;;;;;;;;;5023462;28;20030;-76
2023/12/22 00:21:11;;;;;;;11.98;2.40;;;;;;;;;;5024687;28;20026;-76
2023/12/22 00:23:37;;;;;;;16.00;2.78;;;;;;;;;;5024588;28;20509;-76
2023/12/22 00:26:02;;;;;;;12.68;2.42;;;;;;;;;;5021578;28;20064;-76
2023/12/22 00:28:28;;;;;;;18.38;3.13;;;;;;;;;;5022054;28;20491;-76
2023/12/22 00:30:53;;;;;;;13.00;3.10;;;;;;;;;;5025420;28;20052;-76
2023/12/22 00:33:18;;;;;;;19.10;2.67;;;;;;;;;;5023693;28;20042;-76
2023/12/22 00:35:43;;;;;;;15.90;2.58;;;;;;;;;;5026011;28;20069;-76
2023/12/22 00:38:10;;;;;;;8.77;2.10;;;;;;;;;;5021815;28;20057;-76
2023/12/22 00:40:35;;;;;;;9.25;2.50;;;;;;;;;;5022226;28;20080;-76
2023/12/22 00:43:00;;;;;;;10.27;1.83;;;;;;;;;;5040825;28;20030;-76
2023/12/22 00:45:25;;;;;;;11.15;2.08;;;;;;;;;;5022339;28;20030;-76
2023/12/22 00:47:50;;;;;;;8.15;1.40;;;;;;;;;;5025398;28;20026;-76
2023/12/22 00:50:16;;;;;;;8.02;1.67;;;;;;;;;;5024597;28;20510;-76
2023/12/22 00:52:41;;;;;;;10.77;1.85;;;;;;;;;;5028816;28;20084;-76
2023/12/22 00:55:06;;;;;;;10.05;1.98;;;;;;;;;;5025057;28;20041;-76
2023/12/22 00:57:32;;;;;;;10.73;1.83;;;;;;;;;;5021752;28;20034;-76
2023/12/22 00:59:57;;;;;;;12.88;2.50;;;;;;;;;;5022043;28;20060;-76
2023/12/22 01:02:22;;;;;;;8.40;1.95;;;;;;;;;;5021324;28;20046;-76
2023/12/22 01:04:47;;;;;;;7.75;1.80;;;;;;;;;;5024591;28;20029;-76
2023/12/22 01:07:14;;;;;;;14.15;2.38;;;;;;;;;;5022248;28;20108;-77
2023/12/22 01:09:39;;;;;;;8.18;1.58;;;;;;;;;;5022345;28;20048;-77
2023/12/22 01:12:06;;;;;;;10.05;2.08;;;;;;;;;;5024287;28;20486;-77
2023/12/22 01:14:31;;;;;;;7.80;1.67;;;;;;;;;;5035914;28;20034;-76
2023/12/22 01:16:56;;;;;;;14.25;2.53;;;;;;;;;;5021162;28;20033;-77
2023/12/22 01:19:21;;;;;;;10.85;1.98;;;;;;;;;;5026665;28;20441;-76
2023/12/22 01:21:47;;;;;;;10.70;2.40;;;;;;;;;;5021261;28;20034;-76
2023/12/22 01:24:12;;;;;;;11.75;2.63;;;;;;;;;;5023343;28;20091;-77
2023/12/22 01:26:37;;;;;;;11.02;2.40;;;;;;;;;;5021511;28;20083;-76
2023/12/22 01:29:02;;;;;;;10.27;1.98;;;;;;;;;;5021692;28;20041;-76
2023/12/22 01:31:28;;;;;;;16.75;2.42;;;;;;;;;;5023246;28;20117;-77
2023/12/22 01:33:53;;;;;;;8.30;1.67;;;;;;;;;;5038241;28;20050;-76
2023/12/22 01:36:18;;;;;;;9.48;1.67;;;;;;;;;;5021233;28;20038;-77
2023/12/22 01:38:43;;;;;;;11.02;2.53;;;;;;;;;;5022773;28;20113;-77
2023/12/22 01:41:08;;;;;;;9.70;2.15;;;;;;;;;;5038402;28;20029;-77
2023/12/22 01:43:34;;;;;;;11.25;2.17;;;;;;;;;;5023084;28;20054;-76
2023/12/22 01:45:59;;;;;;;8.90;1.98;;;;;;;;;;5025129;28;20029;-76
2023/12/22 01:48:25;;;;;;;12.05;2.28;;;;;;;;;;5025789;28;20064;-77
2023/12/22 01:50:52;;;;;;;14.18;2.58;;;;;;;;;;5021131;28;20028;-76
2023/12/22 01:53:17;;;;;;;15.50;2.58;;;;;;;;;;5033959;28;20041;-77
2023/12/22 01:55:42;;;;;;;12.82;2.00;;;;;;;;;;5023613;28;20116;-77
2023/12/22 01:58:08;;;;;;;11.50;2.22;;;;;;;;;;5021564;28;20113;-76
2023/12/22 02:00:33;;;;;;;17.45;3.67;;;;;;;;;;5023769;28;20628;-77
2023/12/22 02:02:59;;;;;;;10.20;2.20;;;;;;;;;;5027585;28;20038;-76
2023/12/22 02:05:24;;;;;;;11.40;2.05;;;;;;;;;;5020736;28;20054;-77
2023/12/22 02:07:49;;;;;;;12.95;2.30;;;;;;;;;;5022061;28;20033;-77
2023/12/22 02:10:14;;;;;;;11.25;2.40;;;;;;;;;;5019017;28;20038;-77
2023/12/22 02:12:39;;;;;;;9.55;2.42;;;;;;;;;;5023592;28;20033;-76
2023/12/22 02:15:05;;;;;;;7.00;1.78;;;;;;;;;;5021134;28;20026;-76
2023/12/22 02:17:42;;;;;;;15.32;2.30;;;;;;;;;;5020754;28;20026;-76
2023/12/22 02:20:09;;;;;;;10.90;2.30;;;;;;;;;;5017882;28;20029;-76
2023/12/22 02:22:34;;;;;;;15.20;2.80;;;;;;;;;;5021650;28;20042;-76
2023/12/22 02:24:59;;;;;;;14.00;2.30;;;;;;;;;;5022856;28;20036;-76
2023/12/22 02:27:27;;;;;;;10.80;2.72;;;;;;;;;;5020672;28;20116;-76
2023/12/22 02:30:05;;;;;;;10.93;2.47;;;;;;;;;;5022926;28;20048;-76
2023/12/22 02:32:32;;;;;;;15.95;2.97;;;;;;;;;;5020317;28;20026;-76
2023/12/22 02:34:57;;;;;;;16.40;3.63;;;;;;;;;;5017008;28;20033;-75
2023/12/22 02:37:23;;;;;;;18.30;3.10;;;;;;;;;;5018754;28;20092;-75
2023/12/22 02:39:49;;;;;;;18.27;2.47;;;;;;;;;;5022118;28;20036;-75
2023/12/22 02:42:15;;;;;;;14.32;3.25;;;;;;;;;;5020187;28;20042;-75
2023/12/22 02:44:40;;;;;;;17.42;2.78;;;;;;;;;;5020080;28;20025;-75
2023/12/22 02:47:05;;;;;;;17.27;2.47;;;;;;;;;;5022867;28;20398;-75
2023/12/22 02:49:30;;;;;;;16.73;2.47;;;;;;;;;;5018324;28;20109;-75
2023/12/22 02:51:56;;;;;;;19.27;3.08;;;;;;;;;;5021488;28;20441;-76
2023/12/22 02:54:21;;;;;;;16.48;2.03;;;;;;;;;;5019784;28;20399;-76
2023/12/22 02:56:47;;;;;;;17.63;2.53;;;;;;;;;;5022133;28;20602;-76
2023/12/22 02:59:12;;;;;;;16.70;2.88;;;;;;;;;;5019530;28;20053;-76
2023/12/22 03:01:37;;;;;;;13.63;2.72;;;;;;;;;;5020591;28;20466;-75
2023/12/22 03:04:02;;;;;;;13.13;2.65;;;;;;;;;;5022317;28;20041;-75
2023/12/22 03:06:27;;;;;;;11.38;2.33;;;;;;;;;;5020450;28;20041;-75
2023/12/22 03:08:52;;;;;;;23.63;3.40;;;;;;;;;;5021942;28;20572;-75
2023/12/22 03:11:17;;;;;;;20.40;3.55;;;;;;;;;;5021372;28;20021;-75
2023/12/22 03:13:43;;;;;;;16.90;2.67;;;;;;;;;;5019335;28;20505;-75
2023/12/22 03:16:08;;;;;;;15.63;2.92;;;;;;;;;;5021924;28;20042;-75
2023/12/22 03:18:33;;;;;;;15.32;2.75;;;;;;;;;;5020271;28;20034;-75
2023/12/22 03:20:58;;;;;;;16.33;2.92;;;;;;;;;;5020827;28;20112;-75
2023/12/22 03:23:24;;;;;;;12.23;2.30;;;;;;;;;;5021970;28;20026;-76
2023/12/22 03:25:49;;;;;;;18.05;2.78;;;;;;;;;;5021619;28;20065;-76
2023/12/22 03:28:14;;;;;;;18.55;3.30;;;;;;;;;;5018722;28;20037;-76
2023/12/22 03:30:39;;;;;;;15.50;2.85;;;;;;;;;;5019729;28;20037;-76
2023/12/22 03:33:04;;;;;;;17.17;2.95;;;;;;;;;;5018872;28;20129;-76
2023/12/22 03:35:30;;;;;;;13.52;2.17;;;;;;;;;;5024292;28;20026;-76
2023/12/22 03:37:55;;;;;;;19.67;2.75;;;;;;;;;;5025825;28;20064;-76
2023/12/22 03:40:20;;;;;;;17.48;2.92;;;;;;;;;;5019063;28;20026;-76
2023/12/22 03:42:45;;;;;;;19.90;2.53;;;;;;;;;;5019963;28;20037;-76
2023/12/22 03:45:10;;;;;;;15.00;2.60;;;;;;;;;;5020620;28;20102;-76
2023/12/22 03:47:35;;;;;;;19.92;3.20;;;;;;;;;;5020198;28;20093;-77
2023/12/22 03:50:00;;;;;;;23.35;2.83;;;;;;;;;;5023089;28;20490;-76
2023/12/22 03:52:26;;;;;;;13.82;2.17;;;;;;;;;;5020539;28;20030;-75
2023/12/22 03:54:51;;;;;;;15.00;2.70;;;;;;;;;;5019122;28;20136;-76
2023/12/22 03:57:16;;;;;;;24.70;3.22;;;;;;;;;;5020059;28;20036;-76
2023/12/22 03:59:43;;;;;;;20.15;2.95;;;;;;;;;;5021035;28;20503;-75
2023/12/22 04:02:08;;;;;;;17.02;2.55;;;;;;;;;;5021677;28;20028;-76
2023/12/22 04:04:37;;;;;;;14.48;2.20;;;;;;;;;;5014677;28;20112;-76
2023/12/22 04:07:02;;;;;;;11.73;2.10;;;;;;;;;;5021516;28;20036;-76
2023/12/22 04:09:27;;;;;;;15.52;2.72;;;;;;;;;;5018047;28;20029;-76
2023/12/22 04:11:52;;;;;;;14.40;3.42;;;;;;;;;;5021455;28;20092;-76
2023/12/22 04:14:18;;;;;;;13.27;2.60;;;;;;;;;;5016591;28;20466;-75
2023/12/22 04:16:43;;;;;;;11.70;2.03;;;;;;;;;;5021372;28;20034;-76
2023/12/22 04:19:08;;;;;;;13.60;2.17;;;;;;;;;;5022071;28;20403;-76
2023/12/22 04:21:33;;;;;;;14.55;2.38;;;;;;;;;;5022047;28;20112;-76
2023/12/22 04:23:59;;;;;;;15.10;2.13;;;;;;;;;;5015976;28;20034;-76
2023/12/22 04:26:24;;;;;;;15.10;3.15;;;;;;;;;;5019196;28;20033;-76
2023/12/22 04:28:49;;;;;;;13.93;2.28;;;;;;;;;;5021578;28;20036;-76
2023/12/22 04:31:14;;;;;;;10.55;2.38;;;;;;;;;;5021306;28;20613;-76
2023/12/22 04:33:39;;;;;;;12.23;1.90;;;;;;;;;;5021626;28;20040;-76
2023/12/22 04:36:04;;;;;;;17.13;3.05;;;;;;;;;;5018929;28;20494;-76
2023/12/22 04:38:30;;;;;;;12.82;2.05;;;;;;;;;;5015708;28;20030;-76
2023/12/22 04:40:55;;;;;;;15.05;1.95;;;;;;;;;;5021976;28;20028;-76
2023/12/22 04:43:20;;;;;;;14.07;2.70;;;;;;;;;;5018762;28;20021;-76
2023/12/22 04:45:45;;;;;;;15.13;2.63;;;;;;;;;;5022452;28;20137;-76
2023/12/22 04:48:10;;;;;;;9.27;1.88;;;;;;;;;;5021527;28;20041;-76
2023/12/22 04:50:35;;;;;;;12.70;2.42;;;;;;;;;;5018612;28;20037;-76
2023/12/22 04:53:01;;;;;;;13.68;2.38;;;;;;;;;;5017933;28;20802;-76
2023/12/22 04:55:26;;;;;;;17.00;3.05;;;;;;;;;;5017543;28;20061;-76
2023/12/22 04:57:51;;;;;;;14.70;2.25;;;;;;;;;;5021710;28;20584;-75
2023/12/22 05:00:16;;;;;;;20.25;3.22;;;;;;;;;;5014216;28;20057;-76
2023/12/22 05:02:42;;;;;;;10.45;2.72;;;;;;;;;;5022570;28;20033;-76
2023/12/22 05:05:08;;;;;;;14.93;2.22;;;;;;;;;;5021674;28;20061;-76
2023/12/22 05:07:33;;;;;;;9.95;2.45;;;;;;;;;;5036689;28;20141;-76
2023/12/22 05:09:58;;;;;;;14.98;2.75;;;;;;;;;;5023809;28;20037;-76
2023/12/22 05:12:23;;;;;;;14.43;2.67;;;;;;;;;;5035975;28;20061;-76
2023/12/22 05:14:48;;;;;;;12.07;1.92;;;;;;;;;;5027603;28;20033;-76
2023/12/22 05:17:14;;;;;;;16.13;2.40;;;;;;;;;;5021024;28;20402;-76
2023/12/22 05:19:39;;;;;;;15.35;1.85;;;;;;;;;;5023879;28;20703;-77
2023/12/22 05:22:04;;;;;;;11.18;1.60;;;;;;;;;;5019080;28;20026;-76
2023/12/22 05:24:29;;;;;;;9.32;1.55;;;;;;;;;;5016328;28;20118;-76
2023/12/22 05:26:54;;;;;;;10.07;3.13;;;;;;;;;;5023804;28;20033;-76
2023/12/22 05:29:19;;;;;;;11.50;1.63;;;;;;;;;;5022747;28;20025;-76
2023/12/22 05:31:45;;;;;;;10.90;1.92;;;;;;;;;;5021472;28;20105;-76
2023/12/22 05:34:10;;;;;;;7.45;1.35;;;;;;;;;;5021410;28;20026;-76
2023/12/22 05:36:35;;;;;;;20.73;2.25;;;;;;;;;;5023094;28;20113;-76
2023/12/22 05:39:00;;;;;;;9.00;1.60;;;;;;;;;;5018753;28;20398;-76
2023/12/22 05:41:26;;;;;;;9.95;2.05;;;;;;;;;;5020868;28;20037;-76
2023/12/22 05:43:51;;;;;;;9.32;1.83;;;;;;;;;;5027284;28;20079;-76
2023/12/22 05:46:16;;;;;;;7.85;0.93;;;;;;;;;;5011574;28;20029;-75
2023/12/22 05:48:41;;;;;;;8.38;1.38;;;;;;;;;;5018877;28;20092;-75
2023/12/22 05:51:13;;;;;;;6.53;1.38;;;;;;;;;;5017206;28;20030;-77
2023/12/22 05:53:38;;;;;;;8.73;1.58;;;;;;;;;;5024105;28;20071;-75
2023/12/22 05:56:04;;;;;;;9.18;1.20;;;;;;;;;;5023643;28;20148;-76
2023/12/22 05:58:29;;;;;;;7.68;1.25;;;;;;;;;;5013115;28;20110;-76
2023/12/22 06:00:54;;;;;;;6.70;1.27;;;;;;;;;;5021006;28;20034;-76
2023/12/22 06:03:19;;;;;;;6.00;1.38;;;;;;;;;;5022167;28;20034;-76
2023/12/22 06:05:45;;;;;;;10.30;1.42;;;;;;;;;;5022272;28;20402;-76
2023/12/22 06:08:10;;;;;;;10.93;1.30;;;;;;;;;;5021525;28;20030;-76
2023/12/22 06:10:36;;;;;;;7.40;1.20;;;;;;;;;;5021742;28;20030;-75
2023/12/22 06:13:03;;;;;;;11.57;1.75;;;;;;;;;;5020660;28;20537;-76
2023/12/22 06:15:28;;;;;;;8.35;1.13;;;;;;;;;;5016889;28;20038;-75
2023/12/22 06:17:53;;;;;;;5.88;0.98;;;;;;;;;;5023768;28;20087;-76
2023/12/22 06:20:19;;;;;;;8.05;1.20;;;;;;;;;;5020872;28;20398;-76
2023/12/22 06:22:44;;;;;;;6.47;1.33;;;;;;;;;;5023235;28;20480;-76
2023/12/22 06:25:09;;;;;;;7.22;1.38;;;;;;;;;;5021117;28;20038;-75
2023/12/22 06:27:34;;;;;;;10.77;1.73;;;;;;;;;;5026421;28;20443;-75
2023/12/22 06:30:00;;;;;;;9.65;1.50;;;;;;;;;;5023627;28;20036;-75
2023/12/22 06:32:25;;;;;;;8.13;1.38;;;;;;;;;;5020384;28;20034;-75
2023/12/22 06:34:50;;;;;;;8.75;2.30;;;;;;;;;;5024557;28;20405;-75
2023/12/22 06:37:16;;;;;;;7.50;1.55;;;;;;;;;;5019810;28;20036;-75
2023/12/22 06:39:41;;;;;;;10.30;1.58;;;;;;;;;;5023581;28;20112;-75
2023/12/22 06:42:10;;;;;;;9.43;1.75;;;;;;;;;;5020243;28;20100;-75
2023/12/22 06:44:36;;;;;;;11.35;1.48;;;;;;;;;;5018863;28;20121;-75
2023/12/22 06:47:01;;;;;;;8.10;1.75;;;;;;;;;;5022843;28;20132;-76
2023/12/22 06:49:26;;;;;;;8.45;1.75;;;;;;;;;;5020292;28;20038;-76
2023/12/22 06:51:51;;;;;;;9.70;1.83;;;;;;;;;;5018291;28;20040;-75
2023/12/22 06:54:17;;;;;;;8.10;1.42;;;;;;;;;;5021769;28;20065;-75
2023/12/22 06:56:42;;;;;;;9.70;2.70;;;;;;;;;;5017079;28;20034;-76
2023/12/22 06:59:07;;;;;;;11.05;1.63;;;;;;;;;;5022777;28;20068;-75
2023/12/22 07:01:33;;;;;;;10.38;1.67;;;;;;;;;;5019505;28;20495;-75
2023/12/22 07:04:02;;;;;;;11.88;2.53;;;;;;;;;;5021403;28;20383;-75
2023/12/22 07:06:28;;;;;;;12.85;2.85;;;;;;;;;;5036876;28;20033;-75
2023/12/22 07:09:09;;;;;;;11.95;1.67;;;;;;;;;;5021380;28;20038;-75
2023/12/22 07:11:34;;;;;;;10.60;2.75;;;;;;;;;;5019654;28;20147;-76
2023/12/22 07:13:59;;;;;;;9.38;1.90;;;;;;;;;;5023954;28;20464;-75
2023/12/22 07:16:24;;;;;;;10.05;1.48;;;;;;;;;;5018883;28;20038;-76
2023/12/22 07:18:49;;;;;;;9.45;2.05;;;;;;;;;;5024077;28;20047;-76
2023/12/22 07:21:21;;;;;;;9.10;1.27;;;;;;;;;;5016452;28;20021;-75
2023/12/22 07:23:46;;;;;;;12.15;1.70;;;;;;;;;;5017324;28;20549;-75
2023/12/22 07:26:11;;;;;;;10.38;2.00;;;;;;;;;;5020113;28;20104;-75
2023/12/22 07:28:38;;;;;;;11.45;1.80;;;;;;;;;;5016786;28;20034;-76
2023/12/22 07:31:03;;;;;;;7.90;1.52;;;;;;;;;;5022042;28;20071;-76
2023/12/22 07:33:29;;;;;;;10.25;1.92;;;;;;;;;;5020197;28;20045;-76
2023/12/22 07:35:54;;;;;;;11.75;1.55;;;;;;;;;;5021326;28;20413;-76
2023/12/22 07:38:20;;;;;;;9.85;1.65;;;;;;;;;;5018534;28;20037;-76
2023/12/22 07:40:45;;;;;;;8.30;1.50;;;;;;;;;;5020673;28;20375;-76
2023/12/22 07:43:10;;;;;;;5.97;1.33;;;;;;;;;;5021332;28;20493;-76
2023/12/22 07:45:35;;;;;;;8.23;1.00;;;;;;;;;;5020501;28;20124;-76
2023/12/22 07:48:00;;;;;;;8.60;1.60;;;;;;;;;;5022555;28;20026;-76
2023/12/22 07:50:26;;;;;;;10.32;1.70;;;;;;;;;;5020322;28;20026;-77
2023/12/22 07:52:51;;;;;;;9.15;1.63;;;;;;;;;;5020632;28;20037;-76
2023/12/22 07:55:16;;;;;;;9.02;1.67;;;;;;;;;;5019724;28;20034;-77
2023/12/22 07:57:41;;;;;;;5.97;1.45;;;;;;;;;;5020309;28;20042;-76
2023/12/22 08:00:09;;;;;;;6.30;1.00;;;;;;;;;;5020953;28;20109;-76
2023/12/22 08:02:37;;;;;;;9.48;1.23;;;;;;;;;;5022272;28;20061;-76
2023/12/22 08:05:03;;;;;;;6.03;1.20;;;;;;;;;;5018891;28;20056;-76
2023/12/22 08:07:29;;;;;;;4.50;1.00;;;;;;;;;;5036274;28;20513;-76
2023/12/22 08:09:54;;;;;;;5.75;1.00;;;;;;;;;;5027695;28;20678;-76
2023/12/22 08:12:20;;;;;;;4.50;0.90;;;;;;;;;;5018803;28;20036;-76
2023/12/22 08:14:45;;;;;;;3.78;0.60;;;;;;;;;;5021629;28;20079;-77
2023/12/22 08:17:10;;;;;;;1.75;0.30;;;;;;;;;;5012425;28;20511;-78
2023/12/22 08:19:39;;;;;;;3.28;0.30;;;;;;;;;;5036572;28;20034;-76
2023/12/22 08:22:04;;;;;;;3.22;0.40;;;;;;;;;;5022527;28;20418;-76
2023/12/22 08:24:29;;;;;;;4.05;0.30;;;;;;;;;;5018335;28;20030;-76
2023/12/22 08:26:55;;;;;;;3.28;0.38;;;;;;;;;;5017214;28;20502;-76
2023/12/22 08:29:20;;;;;;;2.60;0.70;;;;;;;;;;5021141;28;20055;-76
2023/12/22 08:31:45;;;;;;;2.30;0.40;;;;;;;;;;5021909;28;20409;-76
2023/12/22 08:34:10;;;;;;;1.42;0.38;;;;;;;;;;5018230;28;20057;-76
2023/12/22 08:36:36;;;;;;;4.80;0.50;;;;;;;;;;5018406;28;20637;-76
2023/12/22 08:39:01;;;;;;;2.88;0.50;;;;;;;;;;5025570;28;20033;-76
2023/12/22 08:41:27;;;;;;;7.75;0.60;;;;;;;;;;5022708;28;20112;-76
2023/12/22 08:43:52;;;;;;;1.92;0.68;;;;;;;;;;5020197;28;20030;-76
2023/12/22 08:46:18;;;;;;;3.78;0.40;;;;;;;;;;5027568;28;20028;-76
2023/12/22 08:48:43;;;;;;;3.05;0.60;;;;;;;;;;5018952;28;20030;-76
2023/12/22 08:51:09;;;;;;;3.33;0.50;;;;;;;;;;5039993;28;20100;-76
2023/12/22 08:53:37;;;;;;;3.10;0.60;;;;;;;;;;5022595;28;20048;-75
2023/12/22 08:56:02;;;;;;;3.80;0.80;;;;;;;;;;5027297;28;20033;-76
2023/12/22 08:58:28;;;;;;;5.57;0.90;;;;;;;;;;5023212;28;20030;-76
2023/12/22 09:00:53;;;;;;;2.72;0.65;;;;;;;;;;5023318;28;20034;-76
2023/12/22 09:03:18;;;;;;;5.00;0.60;;;;;;;;;;5023737;28;20109;-77
2023/12/22 09:05:43;;;;;;;5.45;1.20;;;;;;;;;;5037031;28;20022;-76
2023/12/22 09:08:08;;;;;;;9.60;2.10;;;;;;;;;;5017779;28;20083;-76
2023/12/22 09:10:35;;;;;;;5.93;1.33;;;;;;;;;;5019805;28;20042;-76
2023/12/22 09:13:00;;;;;;;6.65;1.00;;;;;;;;;;5019632;28;20048;-76
2023/12/22 09:15:26;;;;;;;5.68;1.17;;;;;;;;;;5021747;28;20026;-77
2023/12/22 09:17:52;;;;;;;5.97;1.35;;;;;;;;;;5020697;28;20040;-76
2023/12/22 09:20:18;;;;;;;8.18;1.00;;;;;;;;;;5020243;28;20022;-77
2023/12/22 09:22:43;;;;;;;4.38;1.35;;;;;;;;;;5023722;28;20057;-76
2023/12/22 09:25:08;;;;;;;8.82;1.40;;;;;;;;;;5020741;28;20052;-76
2023/12/22 09:27:34;;;;;;;7.80;1.75;;;;;;;;;;5025193;28;20060;-76
2023/12/22 09:29:59;;;;;;;13.73;2.47;;;;;;;;;;5018299;28;20026;-76
2023/12/22 09:32:24;;;;;;;20.80;1.77;;;;;;;;;;5021741;28;20766;-76
2023/12/22 09:34:49;;;;;;;7.75;1.15;;;;;;;;;;5020822;28;20037;-76
2023/12/22 09:37:14;;;;;;;6.30;1.58;;;;;;;;;;5021984;28;20034;-76
2023/12/22 09:39:39;;;;;;;4.63;0.80;;;;;;;;;;5026595;28;20022;-76
2023/12/22 09:42:05;;;;;;;5.85;0.80;;;;;;;;;;5022353;28;20529;-76
2023/12/22 09:44:33;;;;;;;6.70;1.17;;;;;;;;;;5021041;28;20041;-76
2023/12/22 09:46:59;;;;;;;6.90;1.10;;;;;;;;;;5023735;28;20049;-76
2023/12/22 09:49:24;;;;;;;7.00;1.20;;;;;;;;;;5021993;28;20402;-76
2023/12/22 09:51:50;;;;;;;5.53;1.08;;;;;;;;;;5024535;28;20037;-76
2023/12/22 09:54:16;;;;;;;7.85;1.08;;;;;;;;;;5036452;28;20030;-76
2023/12/22 09:56:42;;;;;;;5.45;0.73;;;;;;;;;;5016993;28;20053;-76
2023/12/22 09:59:12;;;;;;;4.50;0.73;;;;;;;;;;5024473;28;20402;-76
2023/12/22 10:01:38;;;;;;;3.42;0.50;;;;;;;;;;5020086;28;20125;-76
2023/12/22 10:04:03;;;;;;;4.55;0.82;;;;;;;;;;5022513;28;20121;-76
2023/12/22 10:06:28;;;;;;;8.25;1.13;;;;;;;;;;5026236;28;20448;-76
2023/12/22 10:08:54;;;;;;;5.72;0.90;;;;;;;;;;5023125;28;20446;-76
2023/12/22 10:11:20;;;;;;;6.25;1.15;;;;;;;;;;5018851;28;20437;-76
2023/12/22 10:13:46;;;;;;;5.72;1.50;;;;;;;;;;5018537;28;20034;-76
2023/12/22 10:16:11;;;;;;;8.05;1.05;;;;;;;;;;5020291;28;20569;-76
2023/12/22 10:18:36;;;;;;;4.80;0.55;;;;;;;;;;5022267;28;20474;-76
2023/12/22 10:21:02;;;;;;;6.00;0.85;;;;;;;;;;5022797;28;20033;-76
2023/12/22 10:23:27;;;;;;;4.05;0.73;;;;;;;;;;5018114;28;20032;-75
2023/12/22 10:25:52;;;;;;;7.50;1.67;;;;;;;;;;5017471;28;20030;-76
2023/12/22 10:28:21;;;;;;;4.20;0.77;;;;;;;;;;5015099;28;20064;-76
2023/12/22 10:30:47;;;;;;;5.65;0.75;;;;;;;;;;5021674;28;20502;-76
2023/12/22 10:33:13;;;;;;;10.70;1.23;;;;;;;;;;5021191;28;20021;-76
2023/12/22 10:35:38;;;;;;;6.82;1.20;;;;;;;;;;5022095;28;20036;-76
2023/12/22 10:38:03;;;;;;;9.00;1.23;;;;;;;;;;5021540;28;20092;-76
2023/12/22 10:40:29;;;;;;;7.25;1.65;;;;;;;;;;5020660;28;20025;-76
2023/12/22 10:42:54;;;;;;;9.35;2.13;;;;;;;;;;5022521;28;20414;-75
2023/12/22 10:45:19;;;;;;;4.53;1.40;;;;;;;;;;5019442;28;20155;-76
2023/12/22 10:47:45;;;;;;;8.18;1.23;;;;;;;;;;5023150;28;20090;-76
2023/12/22 10:50:11;;;;;;;9.18;1.30;;;;;;;;;;5021329;28;20025;-76
2023/12/22 10:52:36;;;;;;;7.70;1.25;;;;;;;;;;5024179;28;20034;-76
2023/12/22 10:55:02;;;;;;;7.80;1.08;;;;;;;;;;5022969;28;20052;-76
2023/12/22 10:57:27;;;;;;;5.95;1.25;;;;;;;;;;5015804;28;20087;-76
2023/12/22 10:59:55;;;;;;;7.20;1.52;;;;;;;;;;5022013;28;20413;-76
2023/12/22 11:02:22;;;;;;;8.38;1.38;;;;;;;;;;5021344;28;20115;-76
2023/12/22 11:04:55;;;;;;;11.50;1.73;;;;;;;;;;5014842;28;20033;-76
2023/12/22 11:07:20;;;;;;;;;;;;;;;;;;5016991;28;20053;-79
2023/12/22 11:09:47;;;;;;;8.52;1.35;;;;;;;;;;5036349;28;19913;-81
2023/12/22 11:12:13;;;;;;;3.10;0.63;;;;;;;;;;5033980;28;20029;-79
2023/12/22 11:14:38;;;;;;;5.88;0.90;;;;;;;;;;5019296;28;20056;-77
2023/12/22 11:17:05;;;;;;;2.40;0.50;;;;;;;;;;5025696;28;20041;-77
2023/12/22 11:19:30;;;;;;;5.53;0.32;;;;;;;;;;5019596;28;20072;-78
2023/12/22 11:21:58;;;;;;;2.38;0.25;;;;;;;;;;5022137;28;20498;-82
2023/12/22 11:24:24;;;;;;;3.17;0.88;;;;;;;;;;5038773;28;20049;-81
2023/12/22 11:26:49;;;;;;;4.30;1.08;;;;;;;;;;5021551;28;20030;-81
2023/12/22 11:29:15;;;;;;;1.85;0.20;;;;;;;;;;5016266;28;20176;-80
2023/12/22 11:31:44;;;;;;;4.90;0.77;;;;;;;;;;5039782;28;20049;-79
2023/12/22 11:34:11;;;;;;;4.95;1.00;;;;;;;;;;5020484;28;20093;-79
2023/12/22 11:36:37;;;;;;;7.75;1.85;;;;;;;;;;5019891;28;20521;-79
2023/12/22 11:39:04;;;;;;;5.40;1.05;;;;;;;;;;5022366;28;20028;-78
2023/12/22 11:41:32;;;;;;;4.80;1.08;;;;;;;;;;5016654;28;20022;-78
2023/12/22 11:43:58;;;;;;;4.70;0.98;;;;;;;;;;5019601;28;20025;-77
2023/12/22 11:46:23;;;;;;;3.25;0.65;;;;;;;;;;5023514;28;20033;-77
2023/12/22 11:48:52;;;;;;;5.97;1.27;;;;;;;;;;5011392;28;20026;-77
2023/12/22 11:51:18;;;;;;;12.23;1.45;;;;;;;;;;5012210;28;20026;-77
2023/12/22 11:53:43;;;;;;;9.57;2.67;;;;;;;;;;5014901;28;20072;-76
2023/12/22 11:56:09;;;;;;;12.50;1.77;;;;;;;;;;5018397;28;20025;-77
2023/12/22 11:58:38;;;;;;;9.65;2.35;;;;;;;;;;5011776;28;20522;-78
2023/12/22 12:01:05;;;;;;;8.93;1.33;;;;;;;;;;5022395;28;20041;-77
2023/12/22 12:03:33;;;;;;;12.02;1.30;;;;;;;;;;5018846;28;20022;-77
2023/12/22 12:06:09;;;;;;;13.63;2.10;;;;;;;;;;5021848;28;20026;-78
2023/12/22 12:08:35;;;;;;;8.30;1.80;;;;;;;;;;5017698;28;20482;-78
2023/12/22 12:11:03;;;;;;;6.03;1.20;;;;;;;;;;5022286;28;20030;-78
2023/12/22 12:13:28;;;;;;;7.18;2.25;;;;;;;;;;5023385;28;20113;-78
2023/12/22 12:15:55;;;;;;;12.38;1.92;;;;;;;;;;5026173;28;20061;-77
2023/12/22 12:18:26;;;;;;;4.95;1.48;;;;;;;;;;5022490;28;20030;-77
2023/12/22 12:20:51;;;;;;;10.40;2.08;;;;;;;;;;5024807;28;20033;-77
2023/12/22 12:23:16;;;;;;;14.50;1.48;;;;;;;;;;5024156;28;20446;-77
2023/12/22 12:25:42;;;;;;;8.77;1.95;;;;;;;;;;5024771;28;20030;-77
2023/12/22 12:28:08;;;;;;;10.90;1.50;;;;;;;;;;5029426;28;20034;-77
2023/12/22 12:30:35;;;;;;;7.60;1.38;;;;;;;;;;5022774;28;20454;-77
2023/12/22 12:33:07;;;;;;;9.52;2.00;;;;;;;;;;5025208;28;20056;-77
2023/12/22 12:35:35;;;;;;;15.63;1.73;;;;;;;;;;5037644;28;20030;-77
2023/12/22 12:38:00;;;;;;;9.73;1.52;;;;;;;;;;5036013;28;20079;-77
2023/12/22 12:40:29;;;;;;;10.57;2.50;;;;;;;;;;5022062;28;20050;-77
2023/12/22 12:42:54;;;;;;;10.40;2.47;;;;;;;;;;5016690;28;20045;-77
2023/12/22 12:45:23;;;;;;;13.73;2.40;;;;;;;;;;5020406;28;20051;-77
2023/12/22 12:47:55;;;;;;;11.25;1.48;;;;;;;;;;5023145;28;20041;-77
2023/12/22 12:50:23;;;;;;;7.82;1.73;;;;;;;;;;5034984;28;20048;-77
2023/12/22 12:52:49;;;;;;;9.20;1.40;;;;;;;;;;5022164;28;20041;-77
2023/12/22 12:55:17;;;;;;;7.15;1.42;;;;;;;;;;5021585;28;20045;-77
2023/12/22 12:57:42;;;;;;;9.45;1.70;;;;;;;;;;5027607;22;20077;-82
2023/12/22 13:00:08;;;;;;;10.02;2.10;;;;;;;;;;5004253;28;20054;-83
2023/12/22 13:02:34;;;;;;;11.32;1.88;;;;;;;;;;4999234;28;20030;-83
2023/12/22 13:05:03;;;;;;;5.75;1.63;;;;;;;;;;5003047;28;20363;-83
2023/12/22 13:07:29;;;;;;;7.05;1.88;;;;;;;;;;5003236;28;20030;-84
2023/12/22 13:09:56;;;;;;;4.97;0.77;;;;;;;;;;5004311;28;20094;-83
2023/12/22 13:12:22;;;;;;;6.70;1.77;;;;;;;;;;5001546;28;20043;-85
2023/12/22 13:14:47;;;;;;;6.55;1.30;;;;;;;;;;5006485;28;20034;-84
2023/12/22 13:17:12;;;;;;;7.95;1.00;;;;;;;;;;4988773;28;20194;-84
2023/12/22 13:19:37;;;;;;;6.18;1.52;;;;;;;;;;5002850;28;20041;-83
2023/12/22 13:22:03;;;;;;;7.95;1.73;;;;;;;;;;5001526;28;20053;-83
2023/12/22 13:24:28;;;;;;;5.90;1.20;;;;;;;;;;5003847;28;20033;-82
2023/12/22 13:27:05;;;;;;;8.02;1.25;;;;;;;;;;5004956;28;20030;-83
2023/12/22 13:29:41;;;;;;;6.30;1.17;;;;;;;;;;5004686;28;20030;-84
2023/12/22 13:32:06;;;;;;;6.00;0.70;;;;;;;;;;5002926;28;20037;-83
2023/12/22 13:34:32;;;;;;;3.13;0.40;;;;;;;;;;4996749;28;20422;-81
2023/12/22 13:36:58;;;;;;;3.03;0.43;;;;;;;;;;5005448;28;20402;-82
2023/12/22 13:39:26;;;;;;;2.42;0.70;;;;;;;;;;5005357;28;20030;-81
2023/12/22 13:41:51;;;;;;;4.00;0.55;;;;;;;;;;5006345;28;20022;-82
2023/12/22 13:44:16;;;;;;;4.90;0.60;;;;;;;;;;5004662;28;20057;-82
2023/12/22 13:46:42;;;;;;;6.35;0.73;;;;;;;;;;5003156;28;20049;-82
2023/12/22 13:49:11;;;;;;;7.35;1.58;;;;;;;;;;4987216;28;20089;-80
2023/12/22 13:51:40;;;;;;;4.65;0.73;;;;;;;;;;5002609;28;20068;-82
2023/12/22 13:54:05;;;;;;;5.13;0.80;;;;;;;;;;5020631;28;20061;-81
2023/12/22 13:56:39;;;;;;;3.88;0.68;;;;;;;;;;5001589;28;20538;-81
2023/12/22 13:59:05;;;;;;;3.92;0.68;;;;;;;;;;4995529;28;20502;-81
2023/12/22 14:01:30;;;;;;;4.18;0.73;;;;;;;;;;5000870;28;20060;-81
2023/12/22 14:03:57;;;;;;;3.80;0.80;;;;;;;;;;5005301;28;20033;-81
2023/12/22 14:06:22;;;;;;;5.72;1.08;;;;;;;;;;5005681;28;20029;-81
2023/12/22 14:08:47;;;;;;;4.20;0.63;;;;;;;;;;4998197;28;20030;-80
2023/12/22 14:11:13;;;;;;;4.30;0.63;;;;;;;;;;5005619;28;20105;-80
2023/12/22 14:13:40;;;;;;;4.00;0.98;;;;;;;;;;5003315;28;20118;-80
2023/12/22 14:16:06;;;;;;;3.50;0.30;;;;;;;;;;5004106;28;20824;-80
2023/12/22 14:18:31;;;;;;;3.38;0.60;;;;;;;;;;5004916;28;20031;-80
2023/12/22 14:20:56;;;;;;;6.22;0.73;;;;;;;;;;5001036;28;20022;-80
2023/12/22 14:23:21;;;;;;;4.53;0.55;;;;;;;;;;5003313;28;20022;-80
2023/12/22 14:25:47;;;;;;;5.32;0.60;;;;;;;;;;5002067;28;20022;-81
2023/12/22 14:28:13;;;;;;;3.15;0.38;;;;;;;;;;5003432;28;20036;-81
2023/12/22 14:30:38;;;;;;;2.72;0.70;;;;;;;;;;5002531;28;20776;-80